createdAt,value
2022-12-11T00:01:39.654Z,0.80
2022-12-11T00:04:28.542Z,0.80
2022-12-11T00:07:17.722Z,0.90
2022-12-11T00:10:09.019Z,0.80
2022-12-11T00:12:59.190Z,0.80
2022-12-11T00:15:47.941Z,0.80
2022-12-11T00:18:37.183Z,0.90
2022-12-11T00:21:26.035Z,0.90
2022-12-11T00:24:14.728Z,0.80
2022-12-11T00:27:03.454Z,0.60
2022-12-11T00:29:53.433Z,0.50
2022-12-11T00:32:43.326Z,0.70
2022-12-11T00:35:32.189Z,0.70
2022-12-11T00:38:22.410Z,0.80
2022-12-11T00:41:11.203Z,0.40
2022-12-11T00:44:00.094Z,0.40
2022-12-11T00:46:50.083Z,0.50
2022-12-11T00:49:38.676Z,0.70
2022-12-11T00:52:27.576Z,0.50
2022-12-11T00:55:16.177Z,0.60
2022-12-11T00:58:05.126Z,0.70
2022-12-11T01:00:54.073Z,0.70
2022-12-11T01:03:44.660Z,0.70
2022-12-11T01:06:33.267Z,0.80
2022-12-11T01:09:35.855Z,0.90
2022-12-11T01:12:26.776Z,0.80
2022-12-11T01:15:15.706Z,1.00
2022-12-11T01:18:04.748Z,1.00
2022-12-11T01:20:54.804Z,0.70
2022-12-11T01:23:43.476Z,0.70
2022-12-11T01:26:32.084Z,0.70
2022-12-11T01:29:20.661Z,0.60
2022-12-11T01:32:09.261Z,0.60
2022-12-11T01:34:57.970Z,0.60
2022-12-11T01:37:48.217Z,0.80
2022-12-11T01:40:36.805Z,0.90
2022-12-11T01:43:25.583Z,0.80
2022-12-11T01:46:14.268Z,0.70
2022-12-11T01:49:05.735Z,0.70
2022-12-11T01:51:57.770Z,0.50
2022-12-11T01:54:49.289Z,0.40
2022-12-11T01:57:38.978Z,0.50
2022-12-11T02:00:27.853Z,0.70
2022-12-11T02:03:16.572Z,0.40
2022-12-11T02:06:05.669Z,0.40
2022-12-11T02:08:54.391Z,0.30
2022-12-11T02:11:54.249Z,0.20
2022-12-11T02:14:50.605Z,0.10
2022-12-11T02:17:45.279Z,0.00
2022-12-11T02:20:38.580Z,0.00
2022-12-11T02:23:49.348Z,0.00
2022-12-11T02:27:04.482Z,0.20
2022-12-11T02:30:04.841Z,0.10
2022-12-11T02:32:57.523Z,0.00
2022-12-11T02:35:49.169Z,0.00
2022-12-11T02:38:41.727Z,0.00
2022-12-11T02:41:32.363Z,0.00
2022-12-11T02:44:25.910Z,0.00
2022-12-11T02:47:17.664Z,0.00
2022-12-11T02:50:11.752Z,0.00
2022-12-11T02:53:02.159Z,0.10
2022-12-11T02:55:58.084Z,0.00
2022-12-11T02:58:56.824Z,0.20
2022-12-11T03:01:47.670Z,0.20
2022-12-11T03:04:38.186Z,0.00
2022-12-11T03:07:30.682Z,0.00
2022-12-11T03:10:20.382Z,0.10
2022-12-11T03:13:09.768Z,-0.10
2022-12-11T03:16:08.328Z,0.00
2022-12-11T03:19:06.570Z,-0.10
2022-12-11T03:22:02.984Z,-0.20
2022-12-11T03:24:55.769Z,-0.10
2022-12-11T03:27:50.291Z,0.10
2022-12-11T03:30:41.321Z,0.00
2022-12-11T03:33:35.747Z,-0.10
2022-12-11T03:36:31.914Z,-0.20
2022-12-11T03:39:26.873Z,-0.10
2022-12-11T03:42:18.235Z,-0.30
2022-12-11T03:45:10.023Z,0.00
2022-12-11T03:48:02.744Z,0.20
2022-12-11T03:50:52.689Z,0.20
2022-12-11T03:53:41.757Z,0.40
2022-12-11T03:56:35.520Z,0.40
2022-12-11T03:59:24.325Z,0.60
2022-12-11T04:02:13.278Z,0.60
2022-12-11T04:05:02.234Z,0.60
2022-12-11T04:07:50.872Z,0.50
2022-12-11T04:10:39.872Z,0.20
2022-12-11T04:13:30.266Z,0.10
2022-12-11T04:16:17.957Z,0.00
2022-12-11T04:19:24.637Z,0.00
2022-12-11T04:22:31.854Z,-0.10
2022-12-11T04:25:22.061Z,-0.30
2022-12-11T04:28:10.738Z,-0.30
2022-12-11T04:31:01.090Z,-0.30
2022-12-11T04:33:50.344Z,-0.20
2022-12-11T04:36:39.330Z,-0.10
2022-12-11T04:39:27.919Z,0.00
2022-12-11T04:42:17.449Z,0.00
2022-12-11T04:45:08.372Z,0.00
2022-12-11T04:47:58.564Z,-0.10
2022-12-11T04:50:47.797Z,0.00
2022-12-11T04:53:36.614Z,0.00
2022-12-11T04:56:25.296Z,0.00
2022-12-11T04:59:15.004Z,0.20
2022-12-11T05:02:03.721Z,0.10
2022-12-11T05:04:53.995Z,0.10
2022-12-11T05:07:43.043Z,0.00
2022-12-11T05:10:31.946Z,0.00
2022-12-11T05:13:20.543Z,0.10
2022-12-11T05:16:11.454Z,0.00
2022-12-11T05:19:00.145Z,0.00
2022-12-11T05:21:50.324Z,-0.10
2022-12-11T05:24:38.908Z,-0.10
2022-12-11T05:27:27.678Z,-0.10
2022-12-11T05:30:16.427Z,0.00
2022-12-11T05:33:05.595Z,-0.20
2022-12-11T05:35:54.395Z,-0.10
2022-12-11T05:38:46.319Z,-0.20
2022-12-11T05:41:35.316Z,-0.30
2022-12-11T05:44:24.046Z,-0.20
2022-12-11T05:47:12.695Z,-0.20
2022-12-11T05:50:01.597Z,-0.20
2022-12-11T05:52:50.400Z,-0.30
2022-12-11T05:55:40.297Z,-0.40
2022-12-11T05:58:29.512Z,-0.30
2022-12-11T06:01:20.850Z,-0.40
2022-12-11T06:04:11.247Z,-0.30
2022-12-11T06:06:59.942Z,-0.30
2022-12-11T06:09:48.542Z,-0.40
2022-12-11T06:12:38.504Z,-0.40
2022-12-11T06:15:28.433Z,-0.30
2022-12-11T06:18:17.133Z,-0.30
2022-12-11T06:21:13.695Z,-0.20
2022-12-11T06:24:04.480Z,-0.40
2022-12-11T06:26:53.120Z,-0.50
2022-12-11T06:29:43.127Z,-0.30
2022-12-11T06:32:31.786Z,-0.40
2022-12-11T06:35:20.388Z,-0.40
2022-12-11T06:38:09.003Z,-0.40
2022-12-11T06:40:58.171Z,-0.20
2022-12-11T06:43:46.992Z,-0.20
2022-12-11T06:46:37.049Z,-0.30
2022-12-11T06:49:25.637Z,-0.20
2022-12-11T06:52:18.373Z,-0.40
2022-12-11T06:55:08.592Z,-0.40
2022-12-11T06:57:57.753Z,-0.60
2022-12-11T07:00:46.352Z,-0.70
2022-12-11T07:03:36.929Z,-0.50
2022-12-11T07:06:27.190Z,-0.40
2022-12-11T07:09:15.756Z,-0.30
2022-12-11T07:12:05.133Z,-0.40
2022-12-11T07:14:53.855Z,-0.80
2022-12-11T07:17:42.455Z,-1.00
2022-12-11T07:20:32.436Z,-1.00
2022-12-11T07:23:21.112Z,-1.00
2022-12-11T07:26:11.450Z,-1.10
2022-12-11T07:29:00.952Z,-0.80
2022-12-11T07:31:49.699Z,-0.70
2022-12-11T07:34:38.939Z,-0.80
2022-12-11T07:37:29.555Z,-0.80
2022-12-11T07:40:18.365Z,-0.80
2022-12-11T07:43:07.749Z,-0.70
2022-12-11T07:45:56.432Z,-0.50
2022-12-11T07:48:48.624Z,-0.50
2022-12-11T07:51:39.372Z,-0.60
2022-12-11T07:54:29.558Z,-0.70
2022-12-11T07:57:18.164Z,-0.70
2022-12-11T08:00:08.718Z,-0.80
2022-12-11T08:03:01.451Z,-0.60
2022-12-11T08:05:50.992Z,-0.50
2022-12-11T08:08:39.902Z,-0.70
2022-12-11T08:11:30.389Z,-0.80
2022-12-11T08:14:19.753Z,-0.80
2022-12-11T08:17:08.453Z,-0.60
2022-12-11T08:19:57.055Z,-0.60
2022-12-11T08:22:45.722Z,-0.60
2022-12-11T08:25:34.251Z,-0.50
2022-12-11T08:28:25.398Z,-0.60
2022-12-11T08:31:17.185Z,-0.50
2022-12-11T08:34:05.963Z,-0.70
2022-12-11T08:36:54.591Z,-0.80
2022-12-11T08:39:44.183Z,-0.80
2022-12-11T08:42:33.023Z,-0.90
2022-12-11T08:45:23.151Z,-0.80
2022-12-11T08:48:11.926Z,-0.80
2022-12-11T08:51:02.476Z,-0.80
2022-12-11T08:53:51.546Z,-0.90
2022-12-11T08:56:40.409Z,-0.70
2022-12-11T08:59:29.126Z,-0.60
2022-12-11T09:02:19.200Z,-0.70
2022-12-11T09:05:10.172Z,-0.50
2022-12-11T09:07:59.958Z,-0.30
2022-12-11T09:10:48.581Z,-0.40
2022-12-11T09:13:37.615Z,-0.40
2022-12-11T09:16:27.732Z,-0.50
2022-12-11T09:19:17.947Z,-0.50
2022-12-11T09:22:06.727Z,-0.60
2022-12-11T09:24:55.366Z,-0.50
2022-12-11T09:27:43.941Z,-0.40
2022-12-11T09:30:32.713Z,-0.50
2022-12-11T09:33:21.552Z,-0.40
2022-12-11T09:36:12.988Z,-0.40
2022-12-11T09:39:02.629Z,-0.60
2022-12-11T09:41:57.326Z,-0.80
2022-12-11T09:44:50.809Z,-0.80
2022-12-11T09:47:42.628Z,-0.80
2022-12-11T09:50:35.352Z,-0.90
2022-12-11T09:53:34.393Z,-0.80
2022-12-11T09:56:28.730Z,-0.70
2022-12-11T09:59:29.054Z,-0.70
2022-12-11T10:02:29.220Z,-0.80
2022-12-11T10:05:29.054Z,-0.60
2022-12-11T10:08:25.003Z,-0.60
2022-12-11T10:11:33.159Z,-0.60
2022-12-11T10:14:30.403Z,-0.30
2022-12-11T10:17:22.161Z,-0.30
2022-12-11T10:20:20.726Z,-0.10
2022-12-11T10:23:13.166Z,0.10
2022-12-11T10:26:08.524Z,-0.10
2022-12-11T10:29:01.276Z,-0.30
2022-12-11T10:31:54.307Z,-0.40
2022-12-11T10:34:47.287Z,-0.50
2022-12-11T10:37:36.043Z,-0.50
2022-12-11T10:40:26.699Z,-0.40
2022-12-11T10:43:15.386Z,-0.30
2022-12-11T10:46:07.232Z,-0.10
2022-12-11T10:48:57.716Z,0.10
2022-12-11T10:51:46.502Z,-0.20
2022-12-11T10:54:39.372Z,-0.50
2022-12-11T10:57:31.036Z,-0.20
2022-12-11T11:00:32.592Z,-0.20
2022-12-11T11:03:26.661Z,-0.20
2022-12-11T11:06:19.130Z,-0.20
2022-12-11T11:09:30.455Z,-0.40
2022-12-11T11:12:21.638Z,-0.20
2022-12-11T11:15:14.522Z,-0.10
2022-12-11T11:18:13.676Z,0.00
2022-12-11T11:21:04.574Z,-0.20
2022-12-11T11:23:55.352Z,-0.20
2022-12-11T11:27:12.145Z,-0.20
2022-12-11T11:29:55.666Z,0.10
2022-12-11T11:32:44.531Z,0.00
2022-12-11T11:35:34.111Z,-0.10
2022-12-11T11:38:27.882Z,-0.30
2022-12-11T11:41:21.314Z,-0.20
2022-12-11T11:44:14.439Z,-0.10
2022-12-11T11:47:10.802Z,0.00
2022-12-11T11:50:07.247Z,0.10
2022-12-11T11:53:03.697Z,0.00
2022-12-11T11:56:03.229Z,0.00
2022-12-11T11:59:01.220Z,0.00
2022-12-11T12:01:49.996Z,-0.10
2022-12-11T12:04:38.733Z,-0.20
2022-12-11T12:07:38.446Z,-0.20
2022-12-11T12:10:37.456Z,-0.10
2022-12-11T12:13:52.016Z,0.00
2022-12-11T12:16:53.189Z,0.10
2022-12-11T12:19:53.196Z,0.10
2022-12-11T12:22:54.253Z,0.10
2022-12-11T12:25:47.682Z,-0.20
2022-12-11T12:28:46.266Z,0.10
2022-12-11T12:31:57.968Z,0.30
2022-12-11T12:35:00.916Z,0.30
2022-12-11T12:37:58.657Z,0.20
2022-12-11T12:41:01.842Z,0.20
2022-12-11T12:44:11.551Z,0.10
2022-12-11T12:47:04.578Z,0.20
2022-12-11T12:49:54.709Z,0.20
2022-12-11T12:52:44.521Z,-0.10
2022-12-11T12:55:34.296Z,-0.20
2022-12-11T12:58:28.849Z,-0.20
2022-12-11T13:01:23.721Z,-0.20
2022-12-11T13:04:56.058Z,-0.20
2022-12-11T13:07:54.229Z,-0.20
2022-12-11T13:10:44.320Z,-0.30
2022-12-11T13:13:36.949Z,-0.40
2022-12-11T13:16:35.631Z,-0.20
2022-12-11T13:19:30.716Z,0.00
2022-12-11T13:22:24.425Z,-0.20
2022-12-11T13:25:28.120Z,-0.40
2022-12-11T13:28:35.289Z,-0.40
2022-12-11T13:31:34.720Z,-0.50
2022-12-11T13:34:25.391Z,-0.60
2022-12-11T13:37:26.792Z,-0.60
2022-12-11T13:40:20.238Z,-0.70
2022-12-11T13:43:19.466Z,-0.40
2022-12-11T13:46:11.433Z,-0.30
2022-12-11T13:49:04.999Z,-0.40
2022-12-11T13:51:56.397Z,-0.10
2022-12-11T13:54:49.852Z,-0.20
2022-12-11T13:57:47.088Z,-0.20
2022-12-11T14:00:36.034Z,-0.30
2022-12-11T14:03:25.090Z,-0.30
2022-12-11T14:06:18.855Z,-0.20
2022-12-11T14:09:09.424Z,-0.10
2022-12-11T14:11:59.418Z,-0.10
2022-12-11T14:14:52.171Z,-0.20
2022-12-11T14:17:48.494Z,-0.30
2022-12-11T14:20:40.791Z,-0.30
2022-12-11T14:23:32.023Z,-0.60
2022-12-11T14:26:22.673Z,-0.30
2022-12-11T14:29:26.053Z,-0.30
2022-12-11T14:32:24.002Z,-0.50
2022-12-11T14:35:24.298Z,-0.50
2022-12-11T14:38:18.079Z,-0.40
2022-12-11T14:41:14.916Z,-0.40
2022-12-11T14:44:09.284Z,-0.30
2022-12-11T14:47:01.746Z,-0.40
2022-12-11T14:49:55.131Z,-0.40
2022-12-11T14:52:48.376Z,-0.30
2022-12-11T14:55:40.634Z,-0.30
2022-12-11T14:58:31.330Z,-0.20
2022-12-11T15:01:25.678Z,-0.20
2022-12-11T15:04:24.875Z,-0.20
2022-12-11T15:07:22.028Z,-0.30
2022-12-11T15:10:24.204Z,-0.20
2022-12-11T15:13:16.994Z,-0.10
2022-12-11T15:16:10.279Z,-0.10
2022-12-11T15:18:59.856Z,-0.10
2022-12-11T15:21:48.974Z,0.00
2022-12-11T15:24:40.412Z,-0.10
2022-12-11T15:27:35.689Z,-0.10
2022-12-11T15:30:32.831Z,-0.20
2022-12-11T15:33:23.488Z,-0.10
2022-12-11T15:36:25.866Z,0.00
2022-12-11T15:39:14.460Z,0.00
2022-12-11T15:42:03.248Z,-0.10
2022-12-11T15:44:52.646Z,0.00
2022-12-11T15:47:41.390Z,-0.10
2022-12-11T15:50:31.847Z,-0.10
2022-12-11T15:53:20.917Z,-0.10
2022-12-11T15:56:14.362Z,-0.30
2022-12-11T15:59:07.019Z,-0.20
2022-12-11T16:01:57.773Z,-0.10
2022-12-11T16:04:46.653Z,-0.10
2022-12-11T16:07:37.080Z,-0.10
2022-12-11T16:10:26.450Z,-0.10
2022-12-11T16:13:16.131Z,-0.20
2022-12-11T16:16:05.711Z,0.00
2022-12-11T16:18:54.673Z,0.10
2022-12-11T16:21:43.391Z,0.00
2022-12-11T16:24:33.701Z,0.10
2022-12-11T16:27:23.555Z,0.00
2022-12-11T16:30:13.367Z,0.00
2022-12-11T16:33:08.597Z,-0.10
2022-12-11T16:36:00.729Z,-0.20
2022-12-11T16:38:53.950Z,-0.20
2022-12-11T16:41:44.565Z,-0.20
2022-12-11T16:44:33.768Z,-0.20
2022-12-11T16:47:22.763Z,-0.30
2022-12-11T16:50:14.056Z,-0.30
2022-12-11T16:53:02.869Z,-0.20
2022-12-11T16:55:51.722Z,-0.30
2022-12-11T16:58:42.532Z,-0.20
2022-12-11T17:01:31.321Z,-0.20
2022-12-11T17:04:20.265Z,-0.30
2022-12-11T17:07:08.967Z,-0.40
2022-12-11T17:09:58.048Z,-0.30
2022-12-11T17:12:46.958Z,-0.10
2022-12-11T17:15:42.009Z,-0.20
2022-12-11T17:18:30.836Z,-0.30
2022-12-11T17:21:21.184Z,-0.20
2022-12-11T17:24:10.541Z,-0.10
2022-12-11T17:26:59.862Z,-0.20
2022-12-11T17:29:51.045Z,-0.30
2022-12-11T17:32:41.074Z,-0.30
2022-12-11T17:35:29.796Z,-0.20
2022-12-11T17:38:18.423Z,-0.20
2022-12-11T17:41:08.242Z,-0.20
2022-12-11T17:43:57.390Z,-0.30
2022-12-11T17:46:46.327Z,-0.40
2022-12-11T17:49:36.532Z,-0.30
2022-12-11T17:52:28.439Z,-0.40
2022-12-11T17:55:21.192Z,-0.30
2022-12-11T17:58:10.161Z,-0.30
2022-12-11T18:00:59.880Z,-0.30
2022-12-11T18:03:48.872Z,-0.40
2022-12-11T18:06:39.057Z,-0.40
2022-12-11T18:09:27.829Z,-0.20
2022-12-11T18:12:16.591Z,-0.10
2022-12-11T18:15:06.547Z,-0.20
2022-12-11T18:17:58.288Z,-0.20
2022-12-11T18:20:50.065Z,-0.20
2022-12-11T18:23:40.175Z,-0.30
2022-12-11T18:26:31.601Z,-0.20
2022-12-11T18:29:20.323Z,-0.20
2022-12-11T18:32:09.367Z,-0.30
2022-12-11T18:34:58.581Z,-0.20
2022-12-11T18:37:47.399Z,-0.10
2022-12-11T18:40:37.395Z,-0.10
2022-12-11T18:43:26.764Z,-0.20
2022-12-11T18:46:17.656Z,-0.20
2022-12-11T18:49:06.588Z,-0.30
2022-12-11T18:51:55.250Z,-0.30
2022-12-11T18:54:44.064Z,-0.40
2022-12-11T18:57:34.107Z,-0.30
2022-12-11T19:00:23.207Z,-0.30
2022-12-11T19:03:14.152Z,-0.20
2022-12-11T19:06:08.399Z,-0.30
2022-12-11T19:08:57.477Z,-0.20
2022-12-11T19:11:46.313Z,-0.20
2022-12-11T19:14:36.286Z,-0.40
2022-12-11T19:17:24.978Z,-0.40
2022-12-11T19:20:47.110Z,-0.40
2022-12-11T19:23:23.387Z,-0.40
2022-12-11T19:26:14.383Z,-0.40
2022-12-11T19:29:03.209Z,-0.40
2022-12-11T19:31:54.073Z,-0.50
2022-12-11T19:34:42.853Z,-0.50
2022-12-11T19:37:32.093Z,-0.50
2022-12-11T19:40:21.912Z,-0.50
2022-12-11T19:43:11.393Z,-0.40
2022-12-11T19:46:02.297Z,-0.40
2022-12-11T19:48:53.995Z,-0.40
2022-12-11T19:51:44.181Z,-0.40
2022-12-11T19:54:36.946Z,-0.40
2022-12-11T19:57:25.697Z,-0.30
2022-12-11T20:00:15.166Z,-0.40
2022-12-11T20:03:03.810Z,-0.50
2022-12-11T20:05:54.332Z,-0.30
2022-12-11T20:08:45.141Z,-0.30
2022-12-11T20:11:35.548Z,-0.20
2022-12-11T20:14:26.727Z,-0.30
2022-12-11T20:17:15.512Z,-0.30
2022-12-11T20:20:04.351Z,-0.30
2022-12-11T20:22:54.914Z,-0.20
2022-12-11T20:25:43.561Z,-0.30
2022-12-11T20:28:32.243Z,-0.30
2022-12-11T20:31:24.159Z,-0.40
2022-12-11T20:34:13.047Z,-0.20
2022-12-11T20:37:01.754Z,-0.30
2022-12-11T20:39:52.103Z,-0.30
2022-12-11T20:42:41.730Z,-0.30
2022-12-11T20:45:30.533Z,-0.30
2022-12-11T20:48:19.912Z,-0.40
2022-12-11T20:51:10.921Z,-0.50
2022-12-11T20:53:59.870Z,-0.60
2022-12-11T20:56:49.870Z,-0.40
2022-12-11T20:59:39.211Z,-0.40
2022-12-11T21:02:30.936Z,-0.40
2022-12-11T21:05:19.868Z,-0.30
2022-12-11T21:08:09.711Z,-0.20
2022-12-11T21:10:58.683Z,-0.20
2022-12-11T21:13:48.888Z,-0.10
2022-12-11T21:16:39.976Z,-0.20
2022-12-11T21:19:28.775Z,-0.20
2022-12-11T21:22:17.458Z,-0.20
2022-12-11T21:25:06.970Z,-0.20
2022-12-11T21:27:55.801Z,-0.30
2022-12-11T21:30:45.922Z,-0.20
2022-12-11T21:33:35.403Z,-0.30
2022-12-11T21:36:24.178Z,-0.30
2022-12-11T21:39:13.471Z,-0.10
2022-12-11T21:42:02.457Z,0.00
2022-12-11T21:48:01.365Z,-0.20
2022-12-11T21:50:51.488Z,-0.20
2022-12-11T21:53:40.478Z,-0.10
2022-12-11T21:56:30.696Z,0.00
2022-12-11T21:59:19.395Z,0.00
2022-12-11T22:02:10.730Z,0.10
2022-12-11T22:05:02.777Z,0.00
2022-12-11T22:07:52.454Z,-0.10
2022-12-11T22:10:41.137Z,-0.20
2022-12-11T22:13:30.102Z,0.00
2022-12-11T22:16:19.103Z,0.00
2022-12-11T22:19:08.129Z,-0.10
2022-12-11T22:21:58.044Z,-0.10
2022-12-11T22:24:47.071Z,-0.10
2022-12-11T22:27:36.248Z,0.00
2022-12-11T22:30:24.992Z,0.10
2022-12-11T22:33:13.536Z,0.00
2022-12-11T22:36:02.233Z,0.00
2022-12-11T22:38:52.684Z,0.10
2022-12-11T22:41:43.311Z,0.10
2022-12-11T22:44:31.934Z,0.10
2022-12-11T22:47:20.537Z,0.00
2022-12-11T22:50:09.774Z,0.00
2022-12-11T22:52:58.488Z,0.00
2022-12-11T22:55:48.525Z,0.00
2022-12-11T22:58:37.657Z,-0.10
2022-12-11T23:01:28.024Z,-0.10
2022-12-11T23:04:16.705Z,-0.20
2022-12-11T23:07:05.654Z,-0.10
2022-12-11T23:09:54.229Z,-0.10
2022-12-11T23:12:44.346Z,0.00
2022-12-11T23:15:32.982Z,-0.20
2022-12-11T23:18:21.953Z,-0.10
2022-12-11T23:21:12.391Z,-0.10
2022-12-11T23:24:01.468Z,-0.10
2022-12-11T23:26:50.212Z,-0.10
2022-12-11T23:29:40.207Z,0.00
2022-12-11T23:32:28.859Z,0.10
2022-12-11T23:35:17.611Z,0.00
2022-12-11T23:38:06.869Z,0.00
2022-12-11T23:40:55.550Z,0.00
2022-12-11T23:43:44.606Z,0.00
2022-12-11T23:46:34.887Z,0.00
2022-12-11T23:49:23.555Z,0.00
2022-12-11T23:52:12.864Z,-0.10
2022-12-11T23:55:01.833Z,-0.20
2022-12-11T23:57:50.579Z,0.00
